DW7584 Weather Reports


Display with metric or nautical units.
time (UTC)temp
F
wind
direction
speed
MPH
gust
MPH
rain 1hr
in
rain 24hr
in
rain mn
in
humidity
%
barometer
mb
20240712103018 62 0.0 0.0 0.00 0.00 0.00 90 1021.3
20240712102017 61 0.0 0.0 0.00 0.00 0.00 92 1021.1
20240712101017 61 0.0 0.0 0.00 0.00 0.00 91 1021.2
20240712100017 61 0.0 0.0 0.00 0.00 0.00 91 1021.0
20240712095017 62 0.0 0.0 0.00 0.00 0.00 90 1021.2
20240712094017 63 0.0 0.0 0.00 0.00 0.00 88 1021.1
20240712093017 63 0.0 0.0 0.00 0.00 0.00 88 1021.0
20240712092037 64 0.0 1.0 0.00 0.00 0.00 87 1020.9
20240712091017 64 203 1.0 2.0 0.00 0.00 0.00 88 1020.8
20240712090017 63 0.0 0.0 0.00 0.00 0.00 88 1020.8
20240712085017 63 0.0 0.0 0.00 0.00 0.00 89 1020.8
20240712084017 63 0.0 0.0 0.00 0.00 0.00 89 1020.7
20240712083017 63 0.0 0.0 0.00 0.00 0.00 90 1020.6
20240712082017 63 0.0 0.0 0.00 0.00 0.00 91 1020.6
20240712081017 63 0.0 0.0 0.00 0.00 0.00 92 1020.5
20240712075037 63 0.0 0.0 0.00 0.00 0.00 91 1020.5
20240712074017 63 0.0 0.0 0.00 0.00 0.00 91 1020.6
20240712073018 63 0.0 0.0 0.00 0.00 0.00 91 1020.5
20240712072037 63 0.0 0.0 0.00 0.00 0.00 90 1020.5
20240712071017 64 0.0 0.0 0.00 0.00 0.00 90 1020.7
20240712070017 64 0.0 0.0 0.00 0.00 0.00 89 1020.7
20240712065017 65 0.0 0.0 0.00 0.00 0.00 88 1020.8
20240712064017 65 0.0 0.0 0.00 0.00 0.00 87 1020.9
20240712063017 65 0.0 0.0 0.00 0.00 0.00 87 1021.0
20240712062017 65 0.0 0.0 0.00 0.00 0.00 87 1020.9
20240712061017 65 0.0 0.0 0.00 0.00 0.00 87 1020.9
20240712060017 65 0.0 0.0 0.00 0.00 0.00 88 1021.0
20240712055018 64 0.0 0.0 0.00 0.00 0.00 89 1021.0
20240712054039 65 0.0 0.0 0.00 0.00 0.00 87 1020.9
20240712053018 65 0.0 0.0 0.00 0.00 0.00 86 1020.8
20240712052017 65 0.0 0.0 0.00 0.00 0.00 86 1020.8
20240712051019 65 0.0 0.0 0.00 0.00 0.00 86 1020.9
20240712050037 65 0.0 0.0 0.00 0.00 0.00 86 1021.0
20240712045017 66 0.0 0.0 0.00 0.00 0.00 85 1021.0
20240712044019 66 225 1.0 2.0 0.00 0.00 0.00 84 1020.9
20240712043017 66 0.0 2.0 0.00 0.00 0.00 84 1020.9
20240712042037 66 248 1.0 2.0 0.00 0.00 0.00 83 1020.9
20240712041017 67 0.0 2.0 0.00 0.00 0.00 82 1021.1
20240712040059 68 248 1.0 2.0 0.00 0.00 0.00 81 1021.0
20240712035017 68 248 1.0 3.0 0.00 0.00 0.00 80 1020.9
20240712034017 68 248 1.0 5.0 0.00 0.00 0.00 80 1020.9
20240712033039 68 248 1.0 6.0 0.00 0.00 0.00 79 1020.7
20240712032017 69 90 1.0 4.0 0.00 0.00 0.00 79 1020.8
20240712031017 69 90 2.0 5.0 0.00 0.00 0.00 79 1020.8
20240712030017 70 90 2.0 4.0 0.00 0.00 0.00 79 1020.7
20240712025017 70 90 2.0 4.0 0.00 0.00 0.00 78 1020.6
20240712024017 71 68 2.0 5.0 0.00 0.00 0.00 77 1020.4
20240712023159 71 90 2.0 5.0 0.00 0.00 0.00 76 1020.4
20240712022019 71 90 3.0 5.0 0.00 0.00 0.00 77 1020.4
20240712021017 72 90 2.0 6.0 0.00 0.00 0.00 76 1020.2
20240712020017 72 90 4.0 8.0 0.00 0.00 0.00 75 1020.2
20240712015018 73 90 3.0 6.0 0.00 0.00 0.00 75 1020.1
20240712014017 73 90 4.0 8.0 0.00 0.00 0.00 75 1020.1
20240712013018 74 90 4.0 10.0 0.00 0.00 0.00 74 1020.1
20240712012017 75 90 3.0 11.0 0.00 0.00 0.00 74 1020.0
20240712011039 75 90 6.0 10.0 0.00 0.00 0.00 73 1020.0
20240712010019 76 90 3.0 7.0 0.00 0.00 0.00 72 1020.0
20240712005040 76 90 5.0 11.0 0.00 0.00 0.00 71 1019.9
20240712004018 78 90 1.0 3.0 0.00 0.00 0.00 61 1019.9
20240712003037 79 90 1.0 3.0 0.00 0.00 0.00 60 1019.9
20240712002018 79 90 1.0 3.0 0.00 0.00 0.00 57 1019.8
20240712001017 79 90 2.0 3.0 0.00 0.00 0.00 58 1019.8
20240712000037 79 90 1.0 3.0 0.00 0.00 0.00 55 1019.7
20240711235016 80 0.0 1.0 0.00 0.00 0.00 56 1019.7
20240711234017 80 90 1.0 2.0 0.00 0.00 0.00 58 1019.7
20240711233016 80 68 1.0 3.0 0.00 0.00 0.00 57 1019.6
20240711232017 80 0.0 1.0 0.00 0.00 0.00 54 1019.6
20240711231019 80 90 1.0 3.0 0.00 0.00 0.00 56 1019.7
20240711230019 80 0.0 1.0 0.00 0.00 0.00 55 1019.8
20240711225039 80 0.0 0.0 0.00 0.00 0.00 53 1019.7
20240711224017 80 0.0 1.0 0.00 0.00 0.00 54 1019.7
20240711223017 80 0.0 1.0 0.00 0.00 0.00 53 1019.8
20240711222017 80 225 1.0 2.0 0.00 0.00 0.00 59 1019.8
20240711221018 81 0.0 1.0 0.00 0.00 0.00 56 1019.8
20240711220017 82 225 1.0 3.0 0.00 0.00 0.00 55 1019.8
20240711215017 82 0.0 1.0 0.00 0.00 0.00 51 1020.0
20240711214017 82 338 1.0 3.0 0.00 0.00 0.00 56 1020.0
20240711213017 82 248 1.0 3.0 0.00 0.00 0.00 54 1020.0
20240711212017 83 0.0 3.0 0.00 0.00 0.00 55 1020.1
20240711211019 82 0.0 2.0 0.00 0.00 0.00 48 1020.3
20240711210016 82 0.0 3.0 0.00 0.00 0.00 49 1020.3
20240711205017 81 0.0 1.0 0.00 0.00 0.00 57 1020.3
20240711204018 81 90 1.0 4.0 0.00 0.00 0.00 55 1020.4
20240711203017 82 0.0 2.0 0.00 0.00 0.00 55 1020.4
20240711202016 81 293 1.0 4.0 0.00 0.00 0.00 60 1020.6
20240711201016 81 0.0 2.0 0.00 0.00 0.00 60 1020.6
20240711200016 80 0.0 1.0 0.00 0.00 0.00 60 1020.6
20240711195019 80 248 1.0 3.0 0.00 0.00 0.00 62 1020.8
20240711194017 82 225 1.0 4.0 0.00 0.00 0.00 62 1020.8
20240711193039 80 0.0 2.0 0.00 0.00 0.00 60 1020.8
20240711192016 81 225 2.0 4.0 0.00 0.00 0.00 61 1020.9
20240711191016 81 248 2.0 4.0 0.00 0.00 0.00 63 1021.0
20240711190016 81 225 1.0 4.0 0.00 0.00 0.00 63 1021.1
20240711185016 81 0.0 1.0 0.00 0.00 0.00 60 1021.2
20240711184017 81 225 1.0 2.0 0.00 0.00 0.00 63 1021.2
20240711183016 80 248 1.0 3.0 0.00 0.00 0.00 64 1021.3
20240711182016 80 225 1.0 3.0 0.00 0.00 0.00 66 1021.3
20240711181017 79 0.0 1.0 0.00 0.00 0.00 68 1021.3
20240711180019 79 270 2.0 5.0 0.00 0.00 0.00 68 1021.4
20240711175016 78 225 2.0 4.0 0.00 0.00 0.00 66 1021.4
20240711174016 78 225 1.0 2.0 0.00 0.00 0.00 66 1021.4
20240711173016 79 0.0 2.0 0.00 0.00 0.00 67 1021.5
20240711172016 78 0.0 1.0 0.00 0.00 0.00 64 1021.7
20240711171016 77 45 1.0 3.0 0.00 0.00 0.00 65 1021.7
20240711170016 76 338 1.0 4.0 0.00 0.00 0.00 64 1021.7
20240711165016 77 270 1.0 2.0 0.00 0.00 0.00 61 1021.9
20240711164016 77 203 1.0 2.0 0.00 0.00 0.00 65 1022.0
20240711163016 75 338 1.0 3.0 0.00 0.00 0.00 66 1022.0
20240711162016 75 315 1.0 3.0 0.00 0.00 0.00 71 1022.1
20240711161016 74 45 1.0 3.0 0.00 0.00 0.00 73 1021.9
20240711160016 74 23 1.0 3.0 0.00 0.00 0.00 70 1022.0
20240711155016 74 0.0 2.0 0.00 0.00 0.00 72 1022.0
20240711154036 73 0.0 2.0 0.00 0.00 0.00 72 1022.1
20240711153016 72 90 1.0 2.0 0.00 0.00 0.00 73 1022.1
20240711152016 73 90 1.0 4.0 0.00 0.00 0.00 72 1021.8
20240711151016 71 45 1.0 2.0 0.00 0.00 0.00 74 1021.9
20240711150016 71 0.0 2.0 0.00 0.00 0.00 77 1021.8
20240711145016 71 0.0 0.0 0.00 0.00 0.00 79 1021.9
20240711144016 71 0.0 1.0 0.00 0.00 0.00 78 1021.8
20240711143016 70 0.0 1.0 0.00 0.00 0.00 78 1021.6
20240711142016 70 0 2.0 4.0 0.00 0.00 0.00 78 1021.6
20240711141017 69 315 1.0 3.0 0.00 0.00 0.00 80 1021.7
20240711140016 69 315 1.0 4.0 0.00 0.00 0.00 78 1021.7
20240711135016 69 293 1.0 2.0 0.00 0.00 0.00 80 1021.6
20240711134016 68 68 1.0 2.0 0.00 0.00 0.00 81 1021.6
20240711133016 67 45 1.0 3.0 0.00 0.00 0.00 81 1021.6
20240711132016 67 23 1.0 2.0 0.00 0.00 0.00 83 1021.6
20240711131016 66 315 3.0 4.0 0.00 0.00 0.00 84 1021.5
20240711130016 66 23 2.0 4.0 0.00 0.00 0.00 83 1021.5
20240711125016 65 338 2.0 5.0 0.00 0.00 0.00 84 1021.5
20240711124016 64 23 3.0 5.0 0.00 0.00 0.00 84 1021.5
20240711123015 64 0 3.0 6.0 0.00 0.00 0.00 85 1021.3
20240711122016 64 23 4.0 6.0 0.00 0.00 0.00 86 1021.3
20240711121036 64 338 3.0 7.0 0.00 0.00 0.00 86 1021.3
20240711120015 64 338 3.0 4.0 0.00 0.00 0.00 87 1021.1
20240711115015 63 0 2.0 4.0 0.00 0.00 0.00 88 1021.2
20240711114018 63 338 2.0 4.0 0.00 0.00 0.00 88 1021.0
20240711113016 62 338 2.0 5.0 0.00 0.00 0.00 89 1020.9
20240711112016 62 315 2.0 3.0 0.00 0.00 0.00 90 1020.9
20240711111016 61 315 2.0 3.0 0.00 0.00 0.00 91 1020.8
20240711110019 61 0.0 2.0 0.00 0.00 0.00 92 1020.7
20240711105039 61 0.0 1.0 0.00 0.00 0.00 92 1020.5
20240711104017 60 0.0 0.0 0.00 0.00 0.00 92 1020.4